Fechtig, South Carolina
Current Conditions -  °F | °C
As of 1:56 PM on Monday 20 Oct 2014 (Local Time) from KNBC Reporting Station
Scattered Clouds Scattered Clouds  
Wind Chill: 78°   Ceiling: Unl
Heat Index: 79°   Visibility: 10mi
Dew Point: 60°   Wind: 7mph
Humidity: 54%   Direction: 280°W
Pressure: 30.05"   Gusts: 17mph
Location:  32.6221°N, 81.0484°W
Report Text: KNBC 201756Z 28006G15KT 10SM SCT045 SCT250 26/16 A3005 RMK AO2 SLP175 T02560156 10261 20133 58028 $
Loading
Personal Weather Stations






























Interactive Weather Map
Tropical Storm Tracking
New forecast layout! Learn more

10-Day Weather Forecast

Advertisements
Track Severe Weather on mobile